📊 Raw Sensor Data
Showing records 50701 to 50725 of 85,137 total
| ID | Distance (ft) | Battery V | Battery A | Int Temp (°F) | Int Humid (%) | Ext Temp (°F) | Solar V | RSSI | SNR | Time Stamp |
|---|---|---|---|---|---|---|---|---|---|---|
| 34449 | 15.3 | 3.94 | -5 | 42 | 40 | 45 | 0.00 | -74 | 8 | 03/08/2025 10:15 PM |
| 34448 | 15.3 | 4.00 | -5 | 43 | 40 | 44 | 0.00 | -74 | 8 | 03/08/2025 10:00 PM |
| 34447 | 15.3 | 3.94 | -5 | 44 | 40 | 45 | 0.10 | -74 | 8 | 03/08/2025 09:45 PM |
| 34446 | 15.3 | 3.94 | -5 | 45 | 39 | 46 | 0.00 | -75 | 8 | 03/08/2025 09:30 PM |
| 34445 | 15.3 | 4.01 | -5 | 45 | 40 | 48 | 0.10 | -76 | 9 | 03/08/2025 09:15 PM |
| 34444 | 15.3 | 4.01 | -5 | 44 | 40 | 49 | 0.00 | -75 | 8 | 03/08/2025 09:00 PM |
| 34443 | 15.3 | 3.95 | -5 | 45 | 40 | 49 | 0.00 | -75 | 8 | 03/08/2025 08:45 PM |
| 34442 | 15.2 | 3.95 | -5 | 45 | 41 | 49 | 0.10 | -75 | 8 | 03/08/2025 08:30 PM |
| 34441 | 15.2 | 3.95 | -5 | 46 | 42 | 49 | 0.10 | -75 | 8 | 03/08/2025 08:15 PM |
| 34440 | 15.2 | 3.95 | -5 | 47 | 42 | 51 | 0.00 | -76 | 8 | 03/08/2025 08:00 PM |
| 34439 | 15.3 | 3.95 | -5 | 48 | 42 | 52 | 0.00 | -76 | 9 | 03/08/2025 07:45 PM |
| 34438 | 15.2 | 3.95 | -5 | 49 | 43 | 52 | 0.10 | -76 | 8 | 03/08/2025 07:30 PM |
| 34437 | 15.3 | 3.95 | -5 | 51 | 44 | 53 | 0.00 | -76 | 7 | 03/08/2025 07:15 PM |
| 34436 | 15.2 | 3.96 | -5 | 52 | 45 | 55 | 0.00 | -76 | 8 | 03/08/2025 07:00 PM |
| 34435 | 15.3 | 4.01 | -5 | 54 | 46 | 54 | 0.10 | -76 | 7 | 03/08/2025 06:45 PM |
| 34434 | 15.3 | 3.96 | -5 | 57 | 47 | 56 | 0.10 | -76 | 8 | 03/08/2025 06:30 PM |
| 34433 | 15.3 | 3.95 | -9 | 60 | 47 | 58 | 3.10 | -76 | 8 | 03/08/2025 06:15 PM |
| 34432 | 15.4 | 3.97 | 0 | 66 | 45 | 61 | 4.50 | -76 | 8 | 03/08/2025 06:00 PM |
| 34431 | 15.4 | 4.06 | 0 | 73 | 42 | 66 | 4.50 | -76 | 7 | 03/08/2025 05:45 PM |
| 34430 | 15.4 | 4.06 | 15 | 76 | 41 | 69 | 4.50 | -77 | 7 | 03/08/2025 05:30 PM |
| 34429 | 15.4 | 4.14 | 0 | 78 | 40 | 69 | 5.10 | -76 | 8 | 03/08/2025 05:15 PM |
| 34428 | 15.4 | 4.01 | 0 | 80 | 39 | 70 | 5.10 | -76 | 8 | 03/08/2025 05:00 PM |
| 34427 | 15.4 | 4.13 | 5 | 79 | 39 | 71 | 5.10 | -76 | 7 | 03/08/2025 04:45 PM |
| 34426 | 15.4 | 4.01 | 0 | 80 | 39 | 71 | 5.10 | -76 | 8 | 03/08/2025 04:30 PM |
| 34425 | 15.5 | 4.01 | 5 | 81 | 38 | 71 | 5.10 | -75 | 9 | 03/08/2025 04:15 PM |